Terminal Aerodrome Forecast
Issued by NWS Paducah, KY

Home | Current Version | Previous Version | Text Only | Print | Product List | Glossary On
Versions: 1 2 3 4 5 6 7 8 9 10 11 12 13 14
000
FTUS43 KPAH 222300
TAFPAH
TAF
KPAH 222338Z 2300/2324 18006KT P6SM BKN070
     FM231200 11008KT P6SM -SHRA SCT010 OVC025
     FM231700 15012KT 3SM -SHRA BR SCT005 OVC010=

USA.gov is the U.S. government's official web portal to all federal, state and local government web resources and services.